Time;durP1;ratioP1;P1;durP2;ratioP2;P2;SDS_P1;SDS_P2;PMS_P1;PMS_P2;Temp;Humidity;BMP_temperature;BMP_pressure;BME280_temperature;BME280_humidity;BME280_pressure;Samples;Min_cycle;Max_cycle;Signal;HPM_P1;HPM_P2
2020/12/14 00:00:39;;;;;;;19.20;12.60;;;7.90;99.90;;;;;;5037764;28;20512;-58
2020/12/14 00:03:06;;;;;;;16.43;11.77;;;7.90;99.90;;;;;;5037522;28;20682;-55
2020/12/14 00:05:32;;;;;;;24.87;13.93;;;7.90;99.90;;;;;;5037296;28;20171;-52
2020/12/14 00:07:57;;;;;;;45.13;15.83;;;7.80;99.90;;;;;;5037487;28;20199;-55
2020/12/14 00:10:23;;;;;;;16.03;12.17;;;7.60;99.90;;;;;;5037717;28;20548;-58
2020/12/14 00:12:49;;;;;;;14.90;10.90;;;7.30;99.90;;;;;;5037301;28;20175;-55
2020/12/14 00:15:14;;;;;;;15.20;10.63;;;7.30;99.90;;;;;;5037413;28;20179;-58
2020/12/14 00:17:40;;;;;;;14.90;11.10;;;7.30;99.90;;;;;;5037257;28;20521;-55
2020/12/14 00:20:06;;;;;;;15.37;10.83;;;7.40;99.90;;;;;;5037363;28;20211;-60
2020/12/14 00:22:32;;;;;;;15.33;10.83;;;7.50;99.90;;;;;;5037434;28;20206;-56
2020/12/14 00:24:58;;;;;;;16.33;11.30;;;7.50;99.90;;;;;;5036817;28;20203;-51
2020/12/14 00:27:24;;;;;;;15.93;11.67;;;7.50;99.90;;;;;;5036788;28;20223;-52
2020/12/14 00:29:50;;;;;;;16.97;12.10;;;7.60;99.90;;;;;;5037032;28;20214;-58
2020/12/14 00:32:15;;;;;;;16.50;11.67;;;7.70;99.90;;;;;;5036952;28;20608;-59
2020/12/14 00:34:41;;;;;;;14.60;10.23;;;7.70;99.90;;;;;;5037172;28;20183;-61
2020/12/14 00:37:09;;;;;;;18.53;10.93;;;7.70;99.90;;;;;;5037005;28;20196;-61
2020/12/14 00:39:35;;;;;;;14.20;10.23;;;7.60;99.90;;;;;;5052064;28;20184;-52
2020/12/14 00:42:00;;;;;;;15.83;11.33;;;7.70;99.90;;;;;;5057230;28;20171;-57
2020/12/14 00:44:26;;;;;;;14.73;10.53;;;7.60;99.90;;;;;;5038477;28;20253;-59
2020/12/14 00:46:52;;;;;;;14.80;10.83;;;7.60;99.90;;;;;;5056940;28;20707;-56
2020/12/14 00:49:17;;;;;;;14.07;9.90;;;7.70;99.90;;;;;;5056369;28;20175;-52
2020/12/14 00:51:43;;;;;;;13.17;10.30;;;7.80;99.90;;;;;;5056350;28;20202;-59
2020/12/14 00:54:09;;;;;;;14.77;10.53;;;7.80;99.90;;;;;;5056616;28;20190;-58
2020/12/14 00:56:35;;;;;;;12.60;9.83;;;7.90;99.90;;;;;;5056430;28;20189;-60
2020/12/14 00:59:01;;;;;;;13.20;10.00;;;7.90;99.90;;;;;;5056631;28;20179;-53
2020/12/14 01:01:27;;;;;;;13.30;10.27;;;7.90;99.90;;;;;;5056709;28;20175;-53
2020/12/14 01:03:53;;;;;;;13.57;9.77;;;7.90;99.90;;;;;;5056259;28;20659;-59
2020/12/14 01:06:18;;;;;;;12.83;10.07;;;7.90;99.90;;;;;;5055791;28;20178;-58
2020/12/14 01:08:44;;;;;;;14.17;10.40;;;7.90;99.90;;;;;;5056757;28;20182;-56
2020/12/14 01:11:09;;;;;;;13.80;9.93;;;7.90;99.90;;;;;;5055897;28;20264;-52
2020/12/14 01:13:35;;;;;;;12.50;9.63;;;7.80;99.90;;;;;;5056090;28;20183;-56
2020/12/14 01:16:01;;;;;;;13.70;9.87;;;7.70;99.90;;;;;;5056016;28;20187;-56
2020/12/14 01:18:26;;;;;;;13.00;10.17;;;7.60;99.90;;;;;;5056168;28;20199;-53
2020/12/14 01:20:52;;;;;;;13.00;9.77;;;7.60;99.90;;;;;;5056072;28;20187;-60
2020/12/14 01:23:18;;;;;;;13.67;9.83;;;7.60;99.90;;;;;;5055720;28;20203;-60
2020/12/14 01:25:44;;;;;;;15.70;10.50;;;7.60;99.90;;;;;;5055863;28;20172;-57
2020/12/14 01:28:10;;;;;;;13.80;10.27;;;7.60;99.90;;;;;;5055701;28;20209;-53
2020/12/14 01:30:36;;;;;;;15.07;10.63;;;7.60;99.90;;;;;;5056032;28;20179;-58
2020/12/14 01:33:02;;;;;;;15.77;10.07;;;7.70;99.90;;;;;;5055944;28;20178;-57
2020/12/14 01:35:28;;;;;;;13.37;9.73;;;7.60;99.90;;;;;;5055331;28;20204;-61
2020/12/14 01:37:54;;;;;;;13.33;9.80;;;7.60;99.90;;;;;;5055697;28;20273;-58
2020/12/14 01:40:20;;;;;;;13.17;9.17;;;7.60;99.90;;;;;;5056117;28;20233;-60
2020/12/14 01:42:47;;;;;;;13.67;10.20;;;7.60;99.90;;;;;;5055772;28;20261;-54
2020/12/14 01:45:12;;;;;;;12.53;10.27;;;7.50;99.90;;;;;;5055726;28;20182;-54
2020/12/14 01:47:39;;;;;;;13.67;9.97;;;7.60;99.90;;;;;;5056229;28;20191;-60
2020/12/14 01:50:05;;;;;;;14.33;10.40;;;7.60;99.90;;;;;;5055879;28;20171;-57
2020/12/14 01:52:31;;;;;;;11.27;9.67;;;7.70;99.90;;;;;;5055102;28;20176;-55
2020/12/14 01:55:00;;;;;;;12.93;10.27;;;7.70;99.90;;;;;;5055685;28;20178;-59
2020/12/14 01:57:27;;;;;;;13.00;10.47;;;7.70;99.90;;;;;;5055490;28;20590;-60
2020/12/14 01:59:55;;;;;;;13.57;10.47;;;7.80;99.90;;;;;;5055413;28;20168;-53
2020/12/14 02:02:21;;;;;;;13.33;10.27;;;7.80;99.90;;;;;;5055041;28;20508;-53
2020/12/14 02:04:46;;;;;;;13.07;9.90;;;7.80;99.90;;;;;;5055121;28;20658;-52
2020/12/14 02:07:12;;;;;;;13.50;9.97;;;7.80;99.90;;;;;;5054674;28;20213;-61
2020/12/14 02:09:38;;;;;;;12.33;9.93;;;7.80;99.90;;;;;;5055177;28;20183;-61
2020/12/14 02:12:03;;;;;;;14.17;10.70;;;9.10;99.90;;;;;;5054976;28;20198;-55
2020/12/14 02:14:29;;;;;;;12.30;10.37;;;7.60;99.90;;;;;;5054715;28;20232;-56
2020/12/14 02:16:55;;;;;;;29.87;12.03;;;7.60;99.90;;;;;;5055092;28;20218;-58
2020/12/14 02:19:20;;;;;;;13.53;10.67;;;7.60;99.90;;;;;;5055280;28;20175;-55
2020/12/14 02:21:49;;;;;;;37.97;12.53;;;7.60;99.90;;;;;;5054728;28;20179;-55
2020/12/14 02:24:15;;;;;;;15.27;11.63;;;7.60;99.90;;;;;;5054709;28;20214;-53
2020/12/14 02:26:41;;;;;;;14.80;11.17;;;7.50;99.90;;;;;;5054729;28;20729;-58
2020/12/14 02:29:07;;;;;;;13.13;10.17;;;7.40;99.90;;;;;;5054943;28;20205;-59
2020/12/14 02:31:32;;;;;;;14.47;10.90;;;7.30;99.90;;;;;;5054922;28;20249;-55
2020/12/14 02:33:58;;;;;;;15.00;11.00;;;7.20;99.90;;;;;;5054445;28;20190;-52
2020/12/14 02:36:24;;;;;;;14.87;10.80;;;7.30;99.90;;;;;;5054152;28;20179;-52
2020/12/14 02:38:50;;;;;;;15.53;12.30;;;7.40;99.90;;;;;;5054697;28;20190;-57
2020/12/14 02:41:16;;;;;;;16.03;12.03;;;7.40;99.90;;;;;;5054339;28;20171;-53
2020/12/14 02:43:41;;;;;;;15.30;11.97;;;7.50;99.90;;;;;;5054318;28;20203;-59
2020/12/14 02:46:07;;;;;;;15.47;12.43;;;7.60;99.90;;;;;;5054709;28;20175;-61
2020/12/14 02:48:32;;;;;;;15.10;11.73;;;7.70;99.90;;;;;;5054439;28;20241;-54
2020/12/14 02:50:58;;;;;;;14.63;11.80;;;7.70;99.90;;;;;;5054098;28;20220;-52
2020/12/14 02:53:23;;;;;;;13.67;10.53;;;7.70;99.90;;;;;;5054407;28;20171;-53
2020/12/14 02:55:49;;;;;;;16.23;11.37;;;7.80;99.90;;;;;;5054219;28;20248;-52
2020/12/14 02:58:14;;;;;;;17.43;12.50;;;7.80;99.90;;;;;;5054217;28;20213;-52
2020/12/14 03:00:40;;;;;;;14.87;10.73;;;7.80;99.90;;;;;;5054195;28;20661;-59
2020/12/14 03:03:05;;;;;;;19.67;12.83;;;7.80;99.90;;;;;;5053985;28;20197;-54
2020/12/14 03:05:31;;;;;;;13.03;10.57;;;7.80;99.90;;;;;;5054025;28;20173;-57
2020/12/14 03:07:56;;;;;;;13.83;10.50;;;7.70;99.90;;;;;;5054428;28;20195;-60
2020/12/14 03:10:22;;;;;;;12.13;9.40;;;7.50;99.90;;;;;;5053909;28;20171;-52
2020/12/14 03:12:47;;;;;;;11.13;8.77;;;7.30;99.90;;;;;;5054509;28;20168;-53
2020/12/14 03:15:13;;;;;;;11.90;9.00;;;7.20;99.90;;;;;;5053668;28;20183;-57
2020/12/14 03:17:38;;;;;;;13.97;9.87;;;7.10;99.90;;;;;;5053142;28;20203;-52
2020/12/14 03:20:06;;;;;;;14.97;10.77;;;7.20;99.90;;;;;;5054170;28;20229;-60
2020/12/14 03:22:31;;;;;;;14.07;10.70;;;7.30;99.90;;;;;;5053568;28;20179;-52
2020/12/14 03:24:57;;;;;;;13.37;9.93;;;7.30;99.90;;;;;;5053978;28;20637;-58
2020/12/14 03:27:22;;;;;;;13.27;10.30;;;7.30;99.90;;;;;;5053826;28;20202;-55
2020/12/14 03:29:48;;;;;;;11.90;9.93;;;7.30;99.90;;;;;;5053999;28;20176;-56
2020/12/14 03:32:13;;;;;;;12.00;10.17;;;7.30;99.90;;;;;;5035669;28;20171;-57
2020/12/14 03:34:39;;;;;;;12.43;9.80;;;7.30;99.90;;;;;;5053810;28;20234;-52
2020/12/14 03:37:04;;;;;;;13.10;9.70;;;7.40;99.90;;;;;;5053431;28;20285;-55
2020/12/14 03:39:30;;;;;;;12.50;9.80;;;7.40;99.90;;;;;;5053667;28;20190;-59
2020/12/14 03:41:55;;;;;;;13.30;10.13;;;7.30;99.90;;;;;;5054107;28;20232;-54
2020/12/14 03:44:21;;;;;;;13.67;9.80;;;7.30;99.90;;;;;;5053334;28;20203;-51
2020/12/14 03:46:46;;;;;;;12.20;9.63;;;7.30;99.90;;;;;;5053308;28;20686;-51
2020/12/14 03:49:12;;;;;;;12.53;9.83;;;7.30;99.90;;;;;;5054058;28;20607;-53
2020/12/14 03:51:37;;;;;;;12.60;9.83;;;7.20;99.90;;;;;;5053205;28;20179;-59
2020/12/14 03:54:03;;;;;;;13.93;10.43;;;7.20;99.90;;;;;;5053806;28;20182;-58
2020/12/14 03:56:28;;;;;;;11.67;9.80;;;7.20;99.90;;;;;;5053367;28;20179;-53
2020/12/14 03:58:54;;;;;;;11.50;9.00;;;7.20;99.90;;;;;;5053687;28;20182;-52
2020/12/14 04:01:25;;;;;;;10.43;8.80;;;7.30;99.90;;;;;;5054019;28;20690;-61
2020/12/14 04:03:51;;;;;;;12.20;9.50;;;7.20;99.90;;;;;;5053915;28;20642;-53
2020/12/14 04:06:22;;;;;;;11.47;9.37;;;7.30;99.90;;;;;;5053128;28;20302;-55
2020/12/14 04:08:47;;;;;;;12.27;9.63;;;7.50;99.90;;;;;;5053547;28;20167;-58
2020/12/14 04:11:14;;;;;;;13.17;10.07;;;7.60;99.90;;;;;;5053586;28;20206;-51
2020/12/14 04:13:40;;;;;;;12.13;9.87;;;7.60;99.90;;;;;;5053182;28;20218;-52
2020/12/14 04:16:06;;;;;;;11.20;9.33;;;7.60;99.90;;;;;;5053039;28;20258;-55
2020/12/14 04:18:31;;;;;;;12.47;9.60;;;7.70;99.90;;;;;;5053045;28;20197;-56
2020/12/14 04:20:57;;;;;;;11.17;8.87;;;7.70;99.90;;;;;;5053127;28;20171;-58
2020/12/14 04:23:23;;;;;;;12.40;9.53;;;7.80;99.90;;;;;;5053398;28;20207;-55
2020/12/14 04:25:48;;;;;;;10.50;8.90;;;9.20;99.90;;;;;;5053090;28;20206;-52
2020/12/14 04:28:14;;;;;;;11.57;9.67;;;7.80;99.90;;;;;;5053439;28;20187;-59
2020/12/14 04:30:39;;;;;;;13.27;9.90;;;7.80;99.90;;;;;;5056401;28;20179;-57
2020/12/14 04:33:06;;;;;;;10.57;8.50;;;7.80;99.90;;;;;;5057308;28;20187;-59
2020/12/14 04:35:32;;;;;;;11.10;8.90;;;7.80;99.90;;;;;;5057021;28;20175;-52
2020/12/14 04:37:57;;;;;;;11.43;9.20;;;7.80;99.90;;;;;;5056477;28;20635;-55
2020/12/14 04:40:27;;;;;;;12.57;8.70;;;7.80;99.90;;;;;;5057037;28;20183;-51
2020/12/14 04:42:54;;;;;;;12.03;8.80;;;7.80;99.90;;;;;;5056968;28;20289;-51
2020/12/14 04:45:21;;;;;;;10.97;8.87;;;7.60;99.90;;;;;;5056665;28;20210;-51
2020/12/14 04:47:48;;;;;;;9.97;8.20;;;7.50;99.90;;;;;;5056416;28;20195;-52
2020/12/14 04:50:16;;;;;;;10.73;8.93;;;7.40;99.90;;;;;;5060455;28;20277;-60
2020/12/14 04:52:42;;;;;;;11.43;8.43;;;7.30;99.90;;;;;;5057694;28;20174;-53
2020/12/14 04:55:10;;;;;;;9.23;7.70;;;7.10;99.90;;;;;;5051910;28;20194;-56
2020/12/14 04:57:36;;;;;;;9.10;7.50;;;7.10;99.90;;;;;;5061262;28;20220;-54
2020/12/14 05:00:04;;;;;;;10.43;7.27;;;7.20;99.90;;;;;;5061591;28;20522;-55
2020/12/14 05:02:29;;;;;;;8.13;7.17;;;7.20;99.90;;;;;;5067930;28;20535;-59
2020/12/14 05:04:55;;;;;;;8.77;6.87;;;7.10;99.90;;;;;;5065322;28;20186;-54
2020/12/14 05:07:45;;;;;;;8.93;7.47;;;7.00;99.90;;;;;;5060095;28;20202;-59
2020/12/14 05:10:12;;;;;;;8.13;7.10;;;7.00;99.90;;;;;;5069890;28;20190;-55
2020/12/14 05:12:42;;;;;;;9.30;6.80;;;7.00;99.90;;;;;;5063366;28;20630;-58
2020/12/14 05:15:20;;;;;;;8.63;7.37;;;7.00;99.90;;;;;;5059827;28;20258;-51
2020/12/14 05:17:46;;;;;;;7.30;6.37;;;6.90;99.90;;;;;;5045672;28;20280;-51
2020/12/14 05:20:19;;;;;;;7.97;6.80;;;6.80;99.90;;;;;;5067367;28;20179;-58
2020/12/14 05:23:03;;;;;;;7.53;6.67;;;6.70;99.90;;;;;;5062760;28;20217;-51
2020/12/14 05:25:29;;;;;;;8.40;6.73;;;6.60;99.90;;;;;;5067632;28;20174;-52
2020/12/14 05:28:05;;;;;;;8.07;6.50;;;6.40;99.90;;;;;;5068514;28;20546;-59
2020/12/14 05:30:38;;;;;;;7.73;6.33;;;6.30;99.90;;;;;;5075045;28;20162;-52
2020/12/14 05:33:05;;;;;;;7.17;6.03;;;6.30;99.90;;;;;;5054853;28;20190;-59
2020/12/14 05:35:32;;;;;;;6.93;6.13;;;6.40;99.90;;;;;;5075514;28;20249;-59
2020/12/14 05:38:30;;;;;;;8.57;6.53;;;6.40;99.90;;;;;;5075543;28;20260;-60
2020/12/14 05:41:00;;;;;;;12.10;9.23;;;6.50;99.90;;;;;;5074958;28;20176;-51
2020/12/14 05:43:33;;;;;;;11.30;9.80;;;6.60;99.90;;;;;;5075924;28;20289;-58
2020/12/14 05:46:15;;;;;;;9.13;7.50;;;6.60;99.90;;;;;;5075332;28;20351;-59
2020/12/14 05:48:41;;;;;;;8.93;7.90;;;6.60;99.90;;;;;;5075516;28;20190;-53
2020/12/14 05:51:08;;;;;;;9.67;8.00;;;6.60;99.90;;;;;;5075416;28;20174;-57
2020/12/14 05:53:39;;;;;;;9.47;8.27;;;6.30;99.90;;;;;;5075777;28;20175;-52
2020/12/14 05:56:06;;;;;;;10.87;8.57;;;6.10;99.90;;;;;;5075708;28;20190;-60
2020/12/14 05:58:34;;;;;;;9.20;7.33;;;6.00;99.90;;;;;;5075578;28;20315;-54
2020/12/14 06:01:05;;;;;;;10.17;8.40;;;6.00;99.90;;;;;;5075793;28;20183;-52
2020/12/14 06:03:31;;;;;;;9.23;7.43;;;6.00;99.90;;;;;;5075086;28;20260;-58
2020/12/14 06:06:13;;;;;;;10.03;7.73;;;6.00;99.90;;;;;;5075182;28;20653;-58
2020/12/14 06:08:44;;;;;;;8.23;7.20;;;6.00;99.90;;;;;;5075668;28;20198;-57
2020/12/14 06:11:14;;;;;;;8.80;7.67;;;6.20;99.90;;;;;;5074854;28;20239;-53
2020/12/14 06:13:51;;;;;;;9.33;7.83;;;6.10;99.90;;;;;;5071080;28;20204;-59
2020/12/14 06:16:30;;;;;;;8.03;6.60;;;6.20;99.90;;;;;;5054129;28;20189;-51
2020/12/14 06:18:56;;;;;;;8.43;6.43;;;6.20;99.90;;;;;;5055286;28;20204;-53
2020/12/14 06:21:32;;;;;;;9.37;7.20;;;6.30;99.90;;;;;;5054097;28;20179;-60
2020/12/14 06:24:00;;;;;;;8.10;6.20;;;6.40;99.90;;;;;;5054970;28;20206;-58
2020/12/14 06:26:26;;;;;;;8.23;7.10;;;6.50;99.90;;;;;;5053079;28;20182;-51
2020/12/14 06:28:53;;;;;;;8.70;6.87;;;6.60;99.90;;;;;;5045629;28;20535;-60
2020/12/14 06:31:38;;;;;;;9.97;7.73;;;6.90;99.90;;;;;;5045774;28;20199;-58
2020/12/14 06:34:05;;;;;;;8.53;7.00;;;6.80;99.90;;;;;;5043602;28;20616;-54
2020/12/14 06:36:39;;;;;;;9.33;7.10;;;6.90;99.90;;;;;;5053511;28;20191;-51
2020/12/14 06:39:28;;;;;;;8.37;5.90;;;6.80;99.90;;;;;;5052290;28;20183;-51
2020/12/14 06:42:13;;;;;;;8.60;6.53;;;6.80;99.90;;;;;;5035080;28;20326;-60
2020/12/14 06:44:42;;;;;;;9.00;6.87;;;6.90;99.90;;;;;;5035322;28;20203;-52
2020/12/14 06:47:18;;;;;;;8.47;6.50;;;6.80;99.90;;;;;;5033974;28;20277;-51
2020/12/14 06:49:45;;;;;;;8.50;6.77;;;6.90;99.90;;;;;;5045126;28;20269;-52
2020/12/14 06:52:10;;;;;;;8.10;6.00;;;6.90;99.90;;;;;;5054007;28;20183;-60
2020/12/14 06:54:40;;;;;;;7.73;5.80;;;6.90;99.90;;;;;;5044666;28;20202;-53
2020/12/14 06:57:06;;;;;;;7.63;6.00;;;7.00;99.90;;;;;;5039158;28;20269;-56
2020/12/14 06:59:32;;;;;;;6.67;5.60;;;7.00;99.90;;;;;;5053841;28;20179;-52
2020/12/14 07:02:00;;;;;;;6.70;5.60;;;7.00;99.90;;;;;;5048554;28;20585;-52
2020/12/14 07:04:28;;;;;;;7.17;5.90;;;7.00;99.90;;;;;;5036027;28;20279;-55
2020/12/14 07:07:06;;;;;;;7.30;5.70;;;7.00;99.90;;;;;;5053107;28;20789;-55
2020/12/14 07:09:34;;;;;;;8.57;6.37;;;7.10;99.90;;;;;;5050450;28;20257;-55
2020/12/14 07:12:08;;;;;;;7.40;6.03;;;7.10;99.90;;;;;;5041962;28;20210;-59
2020/12/14 07:14:34;;;;;;;7.53;5.57;;;8.70;99.90;;;;;;5051701;28;20388;-50
2020/12/14 07:17:02;;;;;;;7.53;5.93;;;7.20;99.90;;;;;;5050253;28;20224;-58
2020/12/14 07:19:37;;;;;;;8.13;6.13;;;7.20;99.90;;;;;;5034200;28;20555;-62
2020/12/14 07:22:03;;;;;;;8.47;6.17;;;8.00;99.90;;;;;;5050244;28;20337;-57
2020/12/14 07:24:35;;;;;;;7.77;6.47;;;7.30;99.90;;;;;;5040784;28;20299;-57
2020/12/14 07:27:02;;;;;;;8.77;6.47;;;7.30;99.90;;;;;;5039100;28;20222;-53
2020/12/14 07:29:27;;;;;;;8.07;6.87;;;7.40;99.90;;;;;;5046206;28;20193;-53
2020/12/14 07:31:53;;;;;;;9.37;7.33;;;7.40;99.90;;;;;;5033990;28;20171;-52
2020/12/14 07:34:19;;;;;;;10.73;7.57;;;7.30;99.90;;;;;;5032689;28;20207;-56
2020/12/14 07:36:44;;;;;;;8.20;6.53;;;7.20;99.90;;;;;;5034911;28;20207;-57
2020/12/14 07:39:10;;;;;;;7.23;6.20;;;7.20;99.90;;;;;;5034566;28;20183;-56
2020/12/14 07:41:35;;;;;;;8.83;6.30;;;7.20;99.90;;;;;;5033473;28;20221;-53
2020/12/14 07:44:03;;;;;;;8.10;6.47;;;8.20;99.90;;;;;;5034356;28;20217;-60
2020/12/14 07:46:34;;;;;;;8.37;7.03;;;7.40;99.90;;;;;;5044837;28;20202;-52
2020/12/14 07:49:03;;;;;;;8.63;6.87;;;7.40;99.90;;;;;;5035350;28;20184;-59
2020/12/14 07:51:30;;;;;;;8.47;6.63;;;7.40;99.90;;;;;;5044136;28;20211;-60
2020/12/14 07:54:13;;;;;;;9.07;7.00;;;7.40;99.90;;;;;;5032857;28;20210;-53
2020/12/14 07:57:01;;;;;;;8.97;6.60;;;7.50;99.90;;;;;;5032176;28;20207;-52
2020/12/14 07:59:29;;;;;;;10.00;7.63;;;7.50;99.90;;;;;;5033406;28;20163;-59
2020/12/14 08:01:55;;;;;;;10.33;7.87;;;7.50;99.90;;;;;;5033348;28;20263;-55
2020/12/14 08:04:29;;;;;;;10.17;7.90;;;7.50;99.90;;;;;;5034197;28;20223;-60
2020/12/14 08:06:56;;;;;;;10.53;8.00;;;7.50;99.90;;;;;;5037473;28;20278;-53
2020/12/14 08:09:28;;;;;;;8.97;6.73;;;7.50;99.90;;;;;;5038237;28;20221;-59
2020/12/14 08:11:53;;;;;;;8.40;7.00;;;7.50;99.90;;;;;;5037227;28;20191;-55
2020/12/14 08:14:19;;;;;;;7.90;6.60;;;7.60;99.90;;;;;;5037327;28;20647;-53
2020/12/14 08:16:46;;;;;;;8.80;7.10;;;7.50;99.90;;;;;;5037475;28;20192;-56
2020/12/14 08:19:17;;;;;;;9.03;6.67;;;7.60;99.90;;;;;;5037844;28;20203;-53
2020/12/14 08:21:58;;;;;;;9.97;7.73;;;7.50;99.90;;;;;;5037285;28;20543;-59
2020/12/14 08:24:24;;;;;;;9.80;7.30;;;7.40;99.90;;;;;;5037288;28;20207;-55
2020/12/14 08:26:55;;;;;;;10.07;7.83;;;7.50;99.90;;;;;;5037025;28;20195;-58
2020/12/14 08:29:21;;;;;;;8.80;7.30;;;7.50;99.90;;;;;;5037517;28;20179;-58
2020/12/14 08:31:47;;;;;;;10.67;8.60;;;7.60;99.90;;;;;;5037399;28;20175;-51
2020/12/14 08:34:12;;;;;;;10.70;8.23;;;7.60;99.90;;;;;;5037299;28;20206;-61
2020/12/14 08:36:40;;;;;;;9.87;6.93;;;7.60;99.90;;;;;;5036610;28;20196;-56
2020/12/14 08:39:12;;;;;;;8.20;6.20;;;7.50;99.90;;;;;;5037538;28;20608;-60
2020/12/14 08:41:38;;;;;;;8.47;6.53;;;7.50;99.90;;;;;;5036935;28;20182;-57
2020/12/14 08:44:03;;;;;;;8.60;6.60;;;7.60;99.90;;;;;;5036480;28;20618;-52
2020/12/14 08:46:29;;;;;;;9.10;6.97;;;7.60;99.90;;;;;;5036567;28;20157;-58
2020/12/14 08:48:57;;;;;;;9.20;6.60;;;7.60;99.90;;;;;;5037240;28;20172;-59
2020/12/14 08:51:23;;;;;;;8.37;6.20;;;7.70;99.90;;;;;;5037133;28;20255;-61
2020/12/14 08:53:51;;;;;;;8.60;6.63;;;7.80;99.90;;;;;;5037315;28;20183;-57
2020/12/14 08:56:19;;;;;;;10.23;6.97;;;7.80;99.90;;;;;;5036512;28;20242;-62
2020/12/14 08:58:50;;;;;;;7.97;6.67;;;7.80;99.90;;;;;;5036905;28;20262;-56
2020/12/14 09:01:16;;;;;;;8.97;6.43;;;7.80;99.90;;;;;;5036734;28;20210;-62
2020/12/14 09:03:47;;;;;;;9.60;7.13;;;7.90;99.90;;;;;;5018719;28;20210;-53
2020/12/14 09:06:33;;;;;;;8.93;7.27;;;7.90;99.90;;;;;;5036235;28;20229;-53
2020/12/14 09:09:08;;;;;;;9.43;7.17;;;8.00;99.90;;;;;;5036093;28;20226;-62
2020/12/14 09:11:36;;;;;;;9.50;7.23;;;7.90;99.90;;;;;;5036195;28;20188;-60
2020/12/14 09:14:04;;;;;;;10.07;7.37;;;7.90;99.90;;;;;;5036136;28;20172;-51
2020/12/14 09:16:30;;;;;;;9.13;7.37;;;7.80;99.90;;;;;;5034970;28;20213;-51
2020/12/14 09:18:56;;;;;;;9.67;8.23;;;7.80;99.90;;;;;;5036186;28;20215;-60
2020/12/14 09:21:22;;;;;;;11.67;9.40;;;7.80;99.90;;;;;;5036440;28;20271;-60
2020/12/14 09:24:11;;;;;;;9.40;8.07;;;7.70;99.90;;;;;;5035941;28;20282;-56
2020/12/14 09:26:37;;;;;;;14.97;12.87;;;7.80;99.90;;;;;;5035885;28;20250;-54
2020/12/14 09:29:02;;;;;;;10.77;8.97;;;7.80;99.90;;;;;;5036501;28;20187;-56
2020/12/14 09:31:28;;;;;;;9.80;8.03;;;7.80;99.90;;;;;;5036114;28;20249;-53
2020/12/14 09:33:54;;;;;;;12.27;9.13;;;7.90;99.90;;;;;;5036642;28;20555;-53
2020/12/14 09:36:19;;;;;;;13.67;11.80;;;7.80;99.90;;;;;;5035731;28;20172;-52
2020/12/14 09:38:45;;;;;;;10.30;8.53;;;7.60;99.90;;;;;;5036289;28;20172;-53
2020/12/14 09:41:10;;;;;;;13.23;9.20;;;7.60;99.90;;;;;;5036629;28;20183;-54
2020/12/14 09:43:36;;;;;;;16.47;13.50;;;7.60;99.90;;;;;;5035563;28;20586;-54
2020/12/14 09:46:01;;;;;;;18.53;16.63;;;7.60;99.90;;;;;;5052683;28;20179;-53
2020/12/14 09:48:27;;;;;;;14.27;12.77;;;7.60;99.90;;;;;;5055658;28;20256;-60
2020/12/14 09:50:52;;;;;;;15.90;14.20;;;7.60;99.90;;;;;;5055843;28;20265;-53
2020/12/14 09:53:18;;;;;;;15.27;12.30;;;7.60;99.90;;;;;;5055827;28;20321;-60
2020/12/14 09:55:44;;;;;;;12.47;10.87;;;7.70;99.90;;;;;;5055275;28;20214;-55
2020/12/14 09:58:09;;;;;;;14.37;12.50;;;7.70;99.90;;;;;;5055160;28;20198;-52
2020/12/14 10:00:35;;;;;;;12.83;11.10;;;7.50;99.90;;;;;;5055627;28;20527;-60
2020/12/14 10:03:00;;;;;;;12.83;11.17;;;7.40;99.90;;;;;;5055644;28;20203;-59
2020/12/14 10:05:26;;;;;;;13.53;11.40;;;7.30;99.90;;;;;;5055139;28;20539;-58
2020/12/14 10:07:51;;;;;;;12.23;10.47;;;7.30;99.90;;;;;;5055371;28;20629;-52
2020/12/14 10:10:17;;;;;;;13.63;11.93;;;7.30;99.90;;;;;;5055019;28;20236;-55
2020/12/14 10:12:43;;;;;;;14.27;11.60;;;7.30;99.90;;;;;;5055649;28;20221;-59
2020/12/14 10:15:09;;;;;;;12.90;10.77;;;7.50;99.90;;;;;;5054828;28;20262;-57
2020/12/14 10:17:38;;;;;;;16.17;13.43;;;7.60;99.90;;;;;;5055280;28;20574;-60
2020/12/14 10:20:05;;;;;;;14.73;12.23;;;7.60;99.90;;;;;;5055369;28;20179;-56
2020/12/14 10:22:32;;;;;;;14.20;12.30;;;7.50;99.90;;;;;;5054741;28;20167;-57
2020/12/14 10:24:58;;;;;;;14.27;12.50;;;7.40;99.90;;;;;;5054837;28;20179;-57
2020/12/14 10:27:23;;;;;;;16.07;12.93;;;7.50;99.90;;;;;;5054747;28;20647;-54
2020/12/14 10:29:49;;;;;;;15.93;13.40;;;7.70;99.90;;;;;;5054661;28;20186;-58
2020/12/14 10:32:14;;;;;;;17.20;13.40;;;7.80;99.90;;;;;;5054988;28;20179;-57
2020/12/14 10:34:40;;;;;;;18.47;14.10;;;7.90;99.90;;;;;;5054384;28;20179;-52
2020/12/14 10:37:06;;;;;;;16.80;13.37;;;8.00;99.90;;;;;;5054504;28;20187;-53
2020/12/14 10:39:31;;;;;;;17.47;14.23;;;8.00;99.90;;;;;;5054521;28;20173;-52
2020/12/14 10:41:57;;;;;;;18.17;14.63;;;8.00;99.90;;;;;;5055026;28;20667;-52
2020/12/14 10:44:22;;;;;;;18.37;14.87;;;8.10;99.90;;;;;;5054476;28;20642;-53
2020/12/14 10:46:48;;;;;;;16.63;14.83;;;8.10;99.90;;;;;;5054646;28;20199;-56
2020/12/14 10:49:13;;;;;;;18.23;14.73;;;8.10;99.90;;;;;;5054971;28;20192;-52
2020/12/14 10:51:39;;;;;;;19.27;15.63;;;8.20;99.90;;;;;;5054222;28;20178;-60
2020/12/14 10:54:05;;;;;;;18.90;14.90;;;8.40;99.90;;;;;;5054862;28;20174;-61
2020/12/14 10:56:30;;;;;;;17.47;15.23;;;8.40;99.90;;;;;;5054629;28;20554;-54
2020/12/14 10:58:56;;;;;;;17.73;15.07;;;8.30;99.90;;;;;;5054123;28;20167;-59
2020/12/14 11:01:22;;;;;;;20.03;15.70;;;8.40;99.90;;;;;;5054613;28;20183;-53
2020/12/14 11:03:48;;;;;;;21.00;17.57;;;8.40;99.90;;;;;;5054114;28;20611;-61
2020/12/14 11:06:13;;;;;;;18.13;14.93;;;8.40;99.90;;;;;;5053978;28;20623;-60
2020/12/14 11:08:39;;;;;;;19.30;15.60;;;8.30;99.90;;;;;;5054735;28;20230;-62
2020/12/14 11:11:04;;;;;;;20.67;16.93;;;8.30;99.90;;;;;;5054442;28;20635;-53
2020/12/14 11:13:30;;;;;;;17.53;14.60;;;8.30;99.90;;;;;;5054206;28;20189;-60
2020/12/14 11:15:56;;;;;;;16.53;14.43;;;8.40;99.90;;;;;;5053920;28;20270;-59
2020/12/14 11:18:21;;;;;;;18.07;15.07;;;8.50;99.90;;;;;;5054163;28;20252;-53
2020/12/14 11:20:47;;;;;;;17.70;14.80;;;8.60;99.90;;;;;;5053900;28;20187;-62
2020/12/14 11:23:13;;;;;;;17.27;14.17;;;8.60;99.90;;;;;;5054089;28;20209;-55
2020/12/14 11:25:39;;;;;;;16.97;14.90;;;8.50;99.90;;;;;;5053497;28;20187;-59
2020/12/14 11:28:04;;;;;;;16.40;13.97;;;8.50;99.90;;;;;;5054291;28;20198;-60
2020/12/14 11:30:30;;;;;;;17.13;14.17;;;8.30;99.90;;;;;;5054108;28;20504;-53
2020/12/14 11:32:55;;;;;;;16.50;14.43;;;8.30;99.90;;;;;;5036140;28;20190;-52
2020/12/14 11:35:21;;;;;;;16.47;14.13;;;8.20;99.90;;;;;;5053670;28;20241;-54
2020/12/14 11:37:46;;;;;;;15.87;14.17;;;8.10;99.90;;;;;;5053551;28;20245;-62
2020/12/14 11:40:12;;;;;;;15.30;13.70;;;8.00;99.90;;;;;;5053267;28;20233;-59
2020/12/14 11:42:38;;;;;;;15.07;13.37;;;7.90;99.90;;;;;;5053767;28;20183;-59
2020/12/14 11:45:07;;;;;;;16.17;14.10;;;7.90;99.90;;;;;;5053435;28;20198;-57
2020/12/14 11:47:33;;;;;;;15.10;13.03;;;8.00;99.90;;;;;;5053027;28;20248;-59
2020/12/14 11:49:58;;;;;;;16.43;13.93;;;8.00;99.90;;;;;;5049054;28;20183;-56
2020/12/14 11:52:24;;;;;;;13.83;12.17;;;8.20;99.90;;;;;;5033195;28;20176;-60
2020/12/14 11:54:50;;;;;;;13.73;12.17;;;8.30;99.90;;;;;;5033419;28;20206;-53
2020/12/14 11:57:15;;;;;;;14.90;13.27;;;8.30;99.90;;;;;;5033698;28;20639;-59
2020/12/14 11:59:41;;;;;;;13.90;11.97;;;8.40;99.90;;;;;;5033708;28;20183;-52
2020/12/14 12:02:07;;;;;;;13.77;11.93;;;8.40;99.90;;;;;;5033530;28;20539;-59
2020/12/14 12:04:32;;;;;;;13.47;11.73;;;8.40;99.90;;;;;;5033396;28;20206;-56
2020/12/14 12:06:59;;;;;;;11.57;10.37;;;8.40;99.90;;;;;;5033770;28;20192;-59
2020/12/14 12:09:24;;;;;;;11.67;10.40;;;8.50;99.90;;;;;;5033671;28;20222;-62
2020/12/14 12:11:50;;;;;;;11.87;10.57;;;8.50;99.90;;;;;;5033355;28;20558;-59
2020/12/14 12:14:15;;;;;;;11.73;10.37;;;8.50;99.90;;;;;;5033336;28;20675;-52
2020/12/14 12:16:44;;;;;;;14.27;12.10;;;8.60;99.90;;;;;;5033821;28;20701;-54
2020/12/14 12:19:09;;;;;;;12.40;10.43;;;8.70;99.90;;;;;;5033846;28;20187;-59
2020/12/14 12:21:35;;;;;;;11.23;9.87;;;8.70;99.90;;;;;;5034034;28;20565;-53
2020/12/14 12:24:01;;;;;;;10.70;9.60;;;8.90;99.90;;;;;;5033898;28;20231;-52
2020/12/14 12:26:26;;;;;;;11.53;10.33;;;8.80;99.90;;;;;;5033144;28;20214;-55
2020/12/14 12:28:52;;;;;;;11.50;9.93;;;8.80;99.90;;;;;;5033557;28;20176;-53
2020/12/14 12:31:17;;;;;;;11.33;9.97;;;8.80;99.90;;;;;;5033685;28;20175;-54
2020/12/14 12:33:43;;;;;;;11.20;10.00;;;8.80;99.90;;;;;;5033392;28;20172;-56
2020/12/14 12:36:09;;;;;;;10.43;9.33;;;8.80;99.90;;;;;;5033728;28;20179;-62
2020/12/14 12:38:34;;;;;;;12.60;9.93;;;8.90;99.90;;;;;;5033067;28;20192;-62
2020/12/14 12:41:00;;;;;;;10.73;9.17;;;8.80;99.90;;;;;;5033473;28;20256;-62
2020/12/14 12:43:25;;;;;;;10.57;8.93;;;8.80;99.90;;;;;;5033361;28;20214;-51
2020/12/14 12:45:51;;;;;;;10.10;9.07;;;8.70;99.90;;;;;;5033576;28;20172;-53